Time;durP1;ratioP1;P1;durP2;ratioP2;P2;SDS_P1;SDS_P2;PMS_P1;PMS_P2;Temp;Humidity;BMP_temperature;BMP_pressure;BME280_temperature;BME280_humidity;BME280_pressure;Samples;Min_cycle;Max_cycle;Signal;HPM_P1;HPM_P2
2023/10/28 00:00:45;;;;;;;60.88;6.97;;;;;;;;;;5053712;28;20546;-59
2023/10/28 00:03:12;;;;;;;55.03;6.57;;;;;;;;;;5043208;28;20041;-61
2023/10/28 00:05:39;;;;;;;46.70;8.20;;;;;;;;;;5037086;28;20111;-59
2023/10/28 00:08:07;;;;;;;73.43;8.13;;;;;;;;;;5039516;28;20103;-59
2023/10/28 00:10:35;;;;;;;72.40;8.20;;;;;;;;;;5039256;28;20518;-60
2023/10/28 00:13:02;;;;;;;93.25;9.15;;;;;;;;;;5040612;28;20046;-62
2023/10/28 00:15:29;;;;;;;61.38;7.28;;;;;;;;;;5040018;28;20073;-59
2023/10/28 00:17:55;;;;;;;60.75;6.82;;;;;;;;;;5038930;28;20128;-60
2023/10/28 00:20:22;;;;;;;47.92;6.30;;;;;;;;;;5042690;28;20048;-61
2023/10/28 00:22:49;;;;;;;57.10;6.63;;;;;;;;;;5038825;28;20111;-63
2023/10/28 00:25:16;;;;;;;78.00;8.15;;;;;;;;;;5038209;28;20041;-63
2023/10/28 00:27:43;;;;;;;34.17;6.15;;;;;;;;;;5040064;28;20705;-59
2023/10/28 00:30:10;;;;;;;53.30;7.00;;;;;;;;;;5044342;28;20636;-58
2023/10/28 00:32:37;;;;;;;332.58;23.95;;;;;;;;;;5034719;28;20041;-61
2023/10/28 00:35:04;;;;;;;71.80;8.80;;;;;;;;;;5042937;28;20053;-61
2023/10/28 00:37:31;;;;;;;57.33;7.88;;;;;;;;;;5038154;28;20107;-60
2023/10/28 00:39:59;;;;;;;63.35;8.35;;;;;;;;;;5037173;28;20037;-59
2023/10/28 00:42:26;;;;;;;82.30;9.45;;;;;;;;;;5038531;28;20052;-60
2023/10/28 00:44:54;;;;;;;42.40;6.55;;;;;;;;;;5038063;28;20041;-61
2023/10/28 00:47:23;;;;;;;69.47;8.45;;;;;;;;;;5037111;28;20140;-61
2023/10/28 00:49:50;;;;;;;71.10;9.30;;;;;;;;;;5043544;28;20569;-59
2023/10/28 00:52:19;;;;;;;62.25;7.88;;;;;;;;;;5042718;28;20041;-59
2023/10/28 00:54:51;;;;;;;83.32;9.73;;;;;;;;;;5041832;28;20067;-62
2023/10/28 00:57:19;;;;;;;88.25;10.63;;;;;;;;;;5036141;28;20056;-62
2023/10/28 00:59:45;;;;;;;67.40;8.70;;;;;;;;;;5041175;28;20104;-60
2023/10/28 01:02:13;;;;;;;60.30;8.65;;;;;;;;;;5043068;28;20044;-59
2023/10/28 01:04:40;;;;;;;57.38;8.73;;;;;;;;;;5034837;28;20053;-59
2023/10/28 01:07:08;;;;;;;72.40;8.88;;;;;;;;;;5040696;28;20045;-60
2023/10/28 01:09:47;;;;;;;102.65;11.23;;;;;;;;;;5039792;28;20064;-61
2023/10/28 01:12:14;;;;;;;62.83;8.98;;;;;;;;;;5041940;28;20602;-59
2023/10/28 01:14:41;;;;;;;68.18;9.18;;;;;;;;;;5037298;28;20065;-59
2023/10/28 01:17:08;;;;;;;72.10;9.63;;;;;;;;;;5042605;28;20136;-59
2023/10/28 01:19:35;;;;;;;62.08;8.70;;;;;;;;;;5040320;28;20056;-65
2023/10/28 01:22:02;;;;;;;79.25;10.73;;;;;;;;;;5041491;28;20069;-60
2023/10/28 01:24:28;;;;;;;63.78;10.45;;;;;;;;;;5036327;28;20124;-59
2023/10/28 01:26:55;;;;;;;66.68;10.07;;;;;;;;;;5034911;28;20051;-59
2023/10/28 01:29:22;;;;;;;104.15;12.77;;;;;;;;;;5036174;28;20064;-63
2023/10/28 01:31:49;;;;;;;102.18;11.68;;;;;;;;;;5045722;28;20048;-61
2023/10/28 01:34:15;;;;;;;45.08;8.55;;;;;;;;;;5037561;28;20049;-60
2023/10/28 01:36:43;;;;;;;63.20;10.00;;;;;;;;;;5036722;28;20044;-61
2023/10/28 01:39:12;;;;;;;82.05;11.02;;;;;;;;;;5050325;28;20048;-60
2023/10/28 01:41:38;;;;;;;46.60;9.20;;;;;;;;;;5049068;28;20052;-59
2023/10/28 01:44:05;;;;;;;73.18;8.45;;;;;;;;;;5043253;28;20526;-63
2023/10/28 01:46:32;;;;;;;63.83;9.23;;;;;;;;;;5036670;28;20414;-59
2023/10/28 01:48:59;;;;;;;75.68;9.55;;;;;;;;;;5035253;28;20057;-62
2023/10/28 01:51:26;;;;;;;54.63;8.13;;;;;;;;;;5038202;28;20655;-59
2023/10/28 01:53:52;;;;;;;53.13;8.10;;;;;;;;;;5039669;28;20041;-59
2023/10/28 01:56:19;;;;;;;50.58;8.30;;;;;;;;;;5035613;28;20041;-61
2023/10/28 01:58:46;;;;;;;86.00;10.07;;;;;;;;;;5041961;28;20163;-61
2023/10/28 02:01:13;;;;;;;240.80;19.60;;;;;;;;;;5051271;22;20054;-65
2023/10/28 02:03:39;;;;;;;79.90;9.50;;;;;;;;;;5017539;28;20115;-60
2023/10/28 02:06:06;;;;;;;53.33;8.00;;;;;;;;;;5026782;28;20038;-59
2023/10/28 02:08:33;;;;;;;61.60;8.18;;;;;;;;;;5009636;28;20049;-60
2023/10/28 02:11:00;;;;;;;53.45;7.35;;;;;;;;;;5020059;28;20087;-61
2023/10/28 02:13:26;;;;;;;40.42;6.00;;;;;;;;;;5017812;28;20460;-60
2023/10/28 02:15:53;;;;;;;52.75;7.05;;;;;;;;;;5023180;28;20099;-60
2023/10/28 02:18:19;;;;;;;40.92;5.65;;;;;;;;;;5018508;28;20069;-60
2023/10/28 02:20:46;;;;;;;53.35;6.38;;;;;;;;;;5021367;28;20450;-59
2023/10/28 02:23:15;;;;;;;55.25;7.30;;;;;;;;;;5020354;28;20049;-60
2023/10/28 02:25:42;;;;;;;73.93;7.50;;;;;;;;;;5017599;28;20065;-59
2023/10/28 02:28:09;;;;;;;36.97;5.97;;;;;;;;;;5020733;28;20668;-59
2023/10/28 02:30:37;;;;;;;57.45;6.05;;;;;;;;;;5019834;28;20148;-59
2023/10/28 02:33:04;;;;;;;37.05;5.38;;;;;;;;;;5021177;28;20069;-60
2023/10/28 02:35:30;;;;;;;32.78;4.90;;;;;;;;;;5019658;28;20065;-61
2023/10/28 02:37:57;;;;;;;73.03;7.10;;;;;;;;;;5019298;28;20053;-59
2023/10/28 02:40:23;;;;;;;52.15;6.18;;;;;;;;;;5019739;28;20128;-59
2023/10/28 02:42:50;;;;;;;38.63;5.20;;;;;;;;;;5018936;28;20136;-60
2023/10/28 02:45:17;;;;;;;51.97;5.75;;;;;;;;;;5023481;28;20067;-61
2023/10/28 02:47:43;;;;;;;45.22;4.75;;;;;;;;;;5021108;28;20037;-60
2023/10/28 02:50:10;;;;;;;56.17;5.95;;;;;;;;;;5020221;28;20060;-59
2023/10/28 02:52:37;;;;;;;64.75;6.30;;;;;;;;;;5033062;28;20521;-62
2023/10/28 02:55:05;;;;;;;28.10;3.83;;;;;;;;;;5027288;28;20627;-60
2023/10/28 02:57:32;;;;;;;48.35;5.13;;;;;;;;;;5022152;28;20044;-59
2023/10/28 02:59:58;;;;;;;74.60;6.80;;;;;;;;;;5017250;28;20053;-59
2023/10/28 03:02:25;;;;;;;50.63;5.32;;;;;;;;;;5020138;28;20095;-59
2023/10/28 03:04:54;;;;;;;76.35;6.75;;;;;;;;;;5020025;28;20146;-59
2023/10/28 03:07:21;;;;;;;63.75;6.30;;;;;;;;;;5020354;28;20046;-60
2023/10/28 03:09:50;;;;;;;44.67;5.53;;;;;;;;;;5028500;28;20100;-60
2023/10/28 03:12:17;;;;;;;31.02;4.45;;;;;;;;;;5024399;28;20103;-61
2023/10/28 03:14:45;;;;;;;57.83;5.95;;;;;;;;;;5023966;28;20045;-60
2023/10/28 03:17:11;;;;;;;37.10;4.35;;;;;;;;;;5029147;28;20046;-60
2023/10/28 03:19:38;;;;;;;54.08;5.45;;;;;;;;;;5022771;28;20104;-61
2023/10/28 03:22:04;;;;;;;41.70;4.78;;;;;;;;;;5020777;28;20455;-60
2023/10/28 03:24:31;;;;;;;35.88;4.30;;;;;;;;;;5027103;28;20046;-60
2023/10/28 03:26:57;;;;;;;55.55;5.60;;;;;;;;;;5022837;28;20057;-59
2023/10/28 03:29:24;;;;;;;109.65;8.82;;;;;;;;;;5022789;28;20046;-59
2023/10/28 03:31:51;;;;;;;77.82;6.72;;;;;;;;;;5022359;28;20069;-59
2023/10/28 03:34:17;;;;;;;38.63;4.40;;;;;;;;;;5026275;28;20044;-59
2023/10/28 03:36:44;;;;;;;57.58;5.93;;;;;;;;;;5023770;28;20053;-59
2023/10/28 03:39:12;;;;;;;34.08;4.22;;;;;;;;;;5021562;28;20037;-60
2023/10/28 03:41:39;;;;;;;53.40;5.55;;;;;;;;;;5022225;28;20480;-60
2023/10/28 03:44:06;;;;;;;51.58;5.82;;;;;;;;;;5023416;28;20398;-61
2023/10/28 03:46:32;;;;;;;32.38;4.13;;;;;;;;;;5023119;28;20479;-60
2023/10/28 03:48:59;;;;;;;49.47;5.18;;;;;;;;;;5023587;28;20091;-59
2023/10/28 03:51:25;;;;;;;63.58;7.18;;;;;;;;;;5020463;28;20034;-60
2023/10/28 03:53:52;;;;;;;44.83;5.50;;;;;;;;;;5026904;28;20042;-59
2023/10/28 03:56:19;;;;;;;51.63;5.55;;;;;;;;;;5024636;28;20070;-60
2023/10/28 03:58:45;;;;;;;90.40;7.95;;;;;;;;;;5030447;28;20046;-60
2023/10/28 04:01:12;;;;;;;46.88;5.70;;;;;;;;;;5019672;28;20053;-59
2023/10/28 04:03:39;;;;;;;47.90;5.88;;;;;;;;;;5024867;28;20034;-60
2023/10/28 04:06:06;;;;;;;54.20;5.95;;;;;;;;;;5024432;28;20107;-60
2023/10/28 04:08:33;;;;;;;41.17;5.82;;;;;;;;;;5027055;28;20631;-59
2023/10/28 04:10:59;;;;;;;60.25;7.00;;;;;;;;;;5023691;28;20391;-60
2023/10/28 04:13:26;;;;;;;66.90;7.50;;;;;;;;;;5025116;28;20049;-60
2023/10/28 04:15:53;;;;;;;36.97;5.15;;;;;;;;;;5023896;28;20041;-60
2023/10/28 04:18:19;;;;;;;40.00;5.43;;;;;;;;;;5018312;28;20044;-59
2023/10/28 04:20:47;;;;;;;48.15;5.55;;;;;;;;;;5021318;28;20045;-60
2023/10/28 04:23:14;;;;;;;55.90;6.60;;;;;;;;;;5022339;28;20076;-60
2023/10/28 04:25:40;;;;;;;58.35;6.57;;;;;;;;;;5022158;28;20132;-62
2023/10/28 04:28:07;;;;;;;33.72;5.28;;;;;;;;;;5018933;28;20065;-60
2023/10/28 04:30:34;;;;;;;46.33;6.32;;;;;;;;;;5020270;28;20648;-59
2023/10/28 04:33:00;;;;;;;56.08;6.63;;;;;;;;;;5025098;28;20056;-60
2023/10/28 04:35:27;;;;;;;40.60;5.63;;;;;;;;;;5021960;28;20038;-59
2023/10/28 04:37:57;;;;;;;75.38;7.18;;;;;;;;;;5018376;28;20130;-62
2023/10/28 04:40:24;;;;;;;60.33;6.95;;;;;;;;;;5024508;28;20095;-62
2023/10/28 04:42:52;;;;;;;40.47;5.65;;;;;;;;;;5024446;28;20046;-62
2023/10/28 04:45:20;;;;;;;68.68;7.88;;;;;;;;;;5019873;28;20148;-62
2023/10/28 04:47:48;;;;;;;49.03;6.60;;;;;;;;;;5022072;28;20046;-62
2023/10/28 04:50:16;;;;;;;47.88;6.68;;;;;;;;;;5023366;28;20042;-63
2023/10/28 04:52:43;;;;;;;69.15;7.57;;;;;;;;;;5022642;28;20042;-62
2023/10/28 04:55:12;;;;;;;48.42;6.55;;;;;;;;;;5025206;28;20127;-62
2023/10/28 04:57:40;;;;;;;87.22;9.25;;;;;;;;;;5011766;28;20049;-62
2023/10/28 05:00:07;;;;;;;43.40;6.15;;;;;;;;;;5026784;28;20597;-64
2023/10/28 05:02:34;;;;;;;90.72;8.35;;;;;;;;;;5020178;28;20266;-62
2023/10/28 05:05:01;;;;;;;86.63;8.45;;;;;;;;;;5019629;28;20042;-63
2023/10/28 05:07:28;;;;;;;72.07;7.68;;;;;;;;;;5017669;28;20044;-62
2023/10/28 05:09:55;;;;;;;65.57;7.28;;;;;;;;;;5016342;28;20069;-62
2023/10/28 05:12:21;;;;;;;46.80;5.90;;;;;;;;;;5022343;28;20041;-62
2023/10/28 05:14:48;;;;;;;56.80;7.13;;;;;;;;;;5018630;28;20592;-63
2023/10/28 05:17:16;;;;;;;49.78;6.10;;;;;;;;;;5020642;28;20099;-63
2023/10/28 05:19:43;;;;;;;61.63;7.25;;;;;;;;;;5019290;28;20076;-62
2023/10/28 05:22:09;;;;;;;35.50;5.25;;;;;;;;;;5024650;28;20049;-63
2023/10/28 05:24:36;;;;;;;47.17;5.90;;;;;;;;;;5019936;28;20046;-62
2023/10/28 05:27:03;;;;;;;60.35;6.80;;;;;;;;;;5020106;28;20098;-63
2023/10/28 05:29:29;;;;;;;67.72;7.03;;;;;;;;;;5019953;28;20049;-62
2023/10/28 05:31:56;;;;;;;89.43;7.82;;;;;;;;;;5018885;28;20107;-62
2023/10/28 05:34:23;;;;;;;53.50;6.07;;;;;;;;;;5018735;28;20073;-64
2023/10/28 05:36:50;;;;;;;65.35;6.82;;;;;;;;;;5019967;28;20068;-62
2023/10/28 05:39:17;;;;;;;43.92;5.32;;;;;;;;;;5023311;28;20037;-63
2023/10/28 05:41:44;;;;;;;49.58;6.72;;;;;;;;;;5022100;28;20565;-63
2023/10/28 05:44:10;;;;;;;65.82;6.75;;;;;;;;;;5019422;28;20131;-64
2023/10/28 05:46:37;;;;;;;49.65;5.82;;;;;;;;;;5023491;28;20049;-62
2023/10/28 05:49:03;;;;;;;76.15;8.00;;;;;;;;;;5016677;28;20045;-64
2023/10/28 05:51:35;;;;;;;66.97;8.13;;;;;;;;;;5023120;28;20120;-63
2023/10/28 05:54:05;;;;;;;52.08;6.70;;;;;;;;;;5020306;28;20087;-62
2023/10/28 05:56:31;;;;;;;54.40;7.40;;;;;;;;;;5022429;28;20041;-62
2023/10/28 05:58:58;;;;;;;102.28;9.82;;;;;;;;;;5020126;28;20091;-62
2023/10/28 06:01:25;;;;;;;64.72;7.75;;;;;;;;;;5021462;28;20128;-62
2023/10/28 06:03:51;;;;;;;43.30;6.95;;;;;;;;;;5020982;28;20049;-62
2023/10/28 06:06:18;;;;;;;55.55;7.13;;;;;;;;;;5017273;28;20475;-62
2023/10/28 06:08:45;;;;;;;45.53;6.38;;;;;;;;;;5019233;28;20057;-63
2023/10/28 06:11:11;;;;;;;45.80;5.90;;;;;;;;;;5019880;28;20073;-63
2023/10/28 06:13:38;;;;;;;65.57;7.95;;;;;;;;;;5020364;28;20554;-62
2023/10/28 06:16:04;;;;;;;47.97;5.75;;;;;;;;;;5019317;28;20049;-63
2023/10/28 06:18:31;;;;;;;57.92;7.07;;;;;;;;;;5020812;28;20057;-63
2023/10/28 06:20:57;;;;;;;60.92;6.50;;;;;;;;;;5022095;28;20093;-63
2023/10/28 06:23:25;;;;;;;46.70;5.63;;;;;;;;;;5017567;28;20056;-63
2023/10/28 06:25:52;;;;;;;90.15;8.77;;;;;;;;;;5018106;28;20037;-62
2023/10/28 06:28:18;;;;;;;62.88;6.68;;;;;;;;;;5020417;28;20116;-61
2023/10/28 06:30:48;;;;;;;43.75;5.32;;;;;;;;;;5019582;28;20073;-61
2023/10/28 06:33:15;;;;;;;47.00;5.68;;;;;;;;;;5018641;28;20041;-63
2023/10/28 06:35:42;;;;;;;48.45;5.78;;;;;;;;;;5020088;28;20107;-61
2023/10/28 06:38:08;;;;;;;21.23;4.20;;;;;;;;;;5020668;28;20039;-62
2023/10/28 06:40:38;;;;;;;45.10;6.50;;;;;;;;;;5020929;28;20116;-61
2023/10/28 06:43:05;;;;;;;51.17;5.88;;;;;;;;;;5022881;28;20045;-61
2023/10/28 06:45:31;;;;;;;36.80;5.45;;;;;;;;;;5023782;28;20046;-62
2023/10/28 06:47:58;;;;;;;80.80;7.75;;;;;;;;;;5022504;28;20046;-63
2023/10/28 06:50:25;;;;;;;52.17;6.82;;;;;;;;;;5019498;28;20042;-61
2023/10/28 06:52:51;;;;;;;104.50;9.65;;;;;;;;;;5025412;28;20125;-62
2023/10/28 06:55:18;;;;;;;42.40;6.22;;;;;;;;;;5018875;28;20046;-62
2023/10/28 06:57:44;;;;;;;67.97;7.50;;;;;;;;;;5020442;28;20042;-62
2023/10/28 07:00:15;;;;;;;42.90;5.40;;;;;;;;;;5022095;28;20541;-61
2023/10/28 07:02:43;;;;;;;48.88;5.78;;;;;;;;;;5018940;28;20050;-62
2023/10/28 07:05:10;;;;;;;49.28;5.50;;;;;;;;;;5012568;28;20543;-62
2023/10/28 07:07:38;;;;;;;53.50;5.93;;;;;;;;;;5023385;28;20042;-62
2023/10/28 07:10:04;;;;;;;51.65;5.55;;;;;;;;;;5027977;28;20395;-62
2023/10/28 07:12:31;;;;;;;41.00;5.10;;;;;;;;;;5026710;28;20109;-62
2023/10/28 07:14:58;;;;;;;53.35;5.90;;;;;;;;;;5018573;28;20069;-61
2023/10/28 07:17:24;;;;;;;46.38;5.38;;;;;;;;;;5021550;28;20072;-61
2023/10/28 07:19:54;;;;;;;100.95;8.95;;;;;;;;;;5019470;28;20048;-63
2023/10/28 07:22:21;;;;;;;25.67;3.80;;;;;;;;;;5027620;28;20057;-62
2023/10/28 07:24:47;;;;;;;19.83;3.45;;;;;;;;;;5020736;28;20121;-62
2023/10/28 07:27:15;;;;;;;31.58;4.90;;;;;;;;;;5021819;28;20041;-62
2023/10/28 07:29:41;;;;;;;23.10;3.67;;;;;;;;;;5020822;28;20103;-61
2023/10/28 07:32:09;;;;;;;29.90;4.03;;;;;;;;;;5026003;28;20042;-62
2023/10/28 07:34:35;;;;;;;20.05;3.28;;;;;;;;;;5029729;28;20120;-62
2023/10/28 07:37:05;;;;;;;31.30;5.50;;;;;;;;;;5026773;28;20049;-62
2023/10/28 07:39:32;;;;;;;39.63;4.28;;;;;;;;;;5026792;28;20056;-62
2023/10/28 07:41:59;;;;;;;37.05;4.35;;;;;;;;;;5026937;28;20053;-61
2023/10/28 07:44:26;;;;;;;39.55;4.90;;;;;;;;;;5028760;28;20057;-61
2023/10/28 07:46:53;;;;;;;62.47;5.65;;;;;;;;;;5028580;28;20072;-61
2023/10/28 07:49:19;;;;;;;21.60;3.55;;;;;;;;;;5029827;28;20070;-61
2023/10/28 07:51:46;;;;;;;26.63;3.90;;;;;;;;;;5027630;28;20478;-61
2023/10/28 07:54:14;;;;;;;26.92;3.85;;;;;;;;;;5027187;28;20045;-63
2023/10/28 07:56:42;;;;;;;29.15;3.80;;;;;;;;;;5033057;28;20128;-61
2023/10/28 07:59:09;;;;;;;13.23;2.65;;;;;;;;;;5031673;28;20541;-61
2023/10/28 08:01:36;;;;;;;20.85;3.50;;;;;;;;;;5033838;28;20059;-61
2023/10/28 08:04:06;;;;;;;29.63;4.07;;;;;;;;;;5030598;28;20483;-61
2023/10/28 08:06:34;;;;;;;27.65;3.72;;;;;;;;;;5029205;28;20061;-62
2023/10/28 08:09:04;;;;;;;28.92;3.30;;;;;;;;;;5030034;28;20141;-61
2023/10/28 08:11:32;;;;;;;37.42;4.03;;;;;;;;;;5031267;28;20049;-62
2023/10/28 08:13:59;;;;;;;74.05;6.15;;;;;;;;;;5033205;28;20139;-61
2023/10/28 08:16:26;;;;;;;23.25;3.22;;;;;;;;;;5031844;28;20037;-61
2023/10/28 08:18:53;;;;;;;19.92;2.67;;;;;;;;;;5032469;28;20819;-62
2023/10/28 08:21:19;;;;;;;19.52;3.03;;;;;;;;;;5030429;28;20037;-61
2023/10/28 08:23:47;;;;;;;25.75;3.00;;;;;;;;;;5030517;28;20042;-62
2023/10/28 08:26:17;;;;;;;25.00;3.15;;;;;;;;;;5031972;28;20041;-61
2023/10/28 08:28:50;;;;;;;31.13;3.25;;;;;;;;;;5031759;28;20045;-63
2023/10/28 08:31:17;;;;;;;27.40;3.80;;;;;;;;;;5032951;28;20449;-62
2023/10/28 08:33:44;;;;;;;21.83;3.10;;;;;;;;;;5031443;28;20041;-61
2023/10/28 08:36:11;;;;;;;43.92;4.38;;;;;;;;;;5032162;28;20053;-62
2023/10/28 08:38:38;;;;;;;28.90;3.42;;;;;;;;;;5029702;28;20065;-61
2023/10/28 08:41:05;;;;;;;38.80;4.20;;;;;;;;;;5027320;28;20453;-61
2023/10/28 08:43:36;;;;;;;19.77;2.88;;;;;;;;;;5025752;28;20037;-61
2023/10/28 08:46:04;;;;;;;19.05;2.95;;;;;;;;;;5028118;28;20486;-61
2023/10/28 08:48:32;;;;;;;20.13;2.80;;;;;;;;;;5030609;28;20510;-62
2023/10/28 08:51:00;;;;;;;31.30;3.80;;;;;;;;;;5026948;28;20045;-62
2023/10/28 08:53:27;;;;;;;32.30;4.03;;;;;;;;;;5027631;28;20037;-61
2023/10/28 08:55:56;;;;;;;61.17;5.35;;;;;;;;;;5030852;28;20475;-61
2023/10/28 08:58:23;;;;;;;25.23;4.03;;;;;;;;;;5025978;28;20487;-61
2023/10/28 09:00:54;;;;;;;16.25;2.75;;;;;;;;;;5021252;28;20061;-61
2023/10/28 09:03:25;;;;;;;13.30;2.75;;;;;;;;;;5024521;28;20132;-61
2023/10/28 09:05:52;;;;;;;29.60;3.25;;;;;;;;;;5029753;28;20056;-61
2023/10/28 09:08:19;;;;;;;41.60;4.30;;;;;;;;;;5026439;28;20407;-61
2023/10/28 09:10:46;;;;;;;26.35;3.58;;;;;;;;;;5023700;28;20472;-61
2023/10/28 09:13:13;;;;;;;21.70;3.03;;;;;;;;;;5024452;28;20050;-61
2023/10/28 09:15:40;;;;;;;18.52;2.95;;;;;;;;;;5026889;28;20038;-62
2023/10/28 09:18:08;;;;;;;20.55;3.00;;;;;;;;;;5028202;28;20558;-63
2023/10/28 09:20:38;;;;;;;20.63;3.22;;;;;;;;;;5023716;28;20380;-61
2023/10/28 09:23:04;;;;;;;33.33;4.28;;;;;;;;;;5030178;28;20052;-61
2023/10/28 09:25:31;;;;;;;23.77;3.30;;;;;;;;;;5027878;28;20073;-62
2023/10/28 09:27:58;;;;;;;19.73;3.60;;;;;;;;;;5029696;28;20037;-61
2023/10/28 09:30:24;;;;;;;25.63;3.45;;;;;;;;;;5026516;28;20403;-60
2023/10/28 09:32:55;;;;;;;31.40;4.25;;;;;;;;;;5023702;28;20050;-61
2023/10/28 09:35:24;;;;;;;27.85;3.28;;;;;;;;;;5026944;28;20045;-62
2023/10/28 09:37:51;;;;;;;58.47;9.15;;;;;;;;;;5023542;28;20045;-61
2023/10/28 09:40:17;;;;;;;39.20;7.95;;;;;;;;;;5022462;28;20048;-61
2023/10/28 09:42:46;;;;;;;35.03;9.85;;;;;;;;;;5020805;28;20042;-62
2023/10/28 09:45:13;;;;;;;43.13;11.65;;;;;;;;;;5025820;28;20038;-61
2023/10/28 09:47:49;;;;;;;206.68;90.68;;;;;;;;;;5022277;28;20382;-61
2023/10/28 09:50:16;;;;;;;197.48;86.18;;;;;;;;;;5019561;28;20048;-62
2023/10/28 09:52:45;;;;;;;171.80;81.72;;;;;;;;;;5027347;28;20120;-62
2023/10/28 09:55:13;;;;;;;98.60;46.33;;;;;;;;;;5026724;28;20057;-60
2023/10/28 09:57:41;;;;;;;39.75;12.90;;;;;;;;;;5023352;28;20042;-66
2023/10/28 10:00:17;;;;;;;30.00;7.80;;;;;;;;;;5024002;28;20056;-63
2023/10/28 10:02:44;;;;;;;29.98;4.47;;;;;;;;;;5021727;28;20073;-62
2023/10/28 10:05:19;;;;;;;33.35;3.75;;;;;;;;;;5030222;28;20485;-65
2023/10/28 10:07:46;;;;;;;19.70;2.97;;;;;;;;;;5021862;28;20121;-65
2023/10/28 10:10:13;;;;;;;30.23;3.35;;;;;;;;;;5022342;28;20054;-65
2023/10/28 10:12:40;;;;;;;15.32;3.13;;;;;;;;;;5022931;28;20038;-62
2023/10/28 10:15:10;;;;;;;25.73;3.90;;;;;;;;;;5027697;28;20041;-62
2023/10/28 10:17:47;;;;;;;29.30;4.20;;;;;;;;;;5023555;28;20098;-61
2023/10/28 10:20:22;;;;;;;34.72;4.13;;;;;;;;;;5022621;28;20123;-61
2023/10/28 10:22:53;;;;;;;55.03;5.80;;;;;;;;;;5024655;28;20487;-63
2023/10/28 10:25:29;;;;;;;25.10;3.67;;;;;;;;;;5024238;28;20038;-63
2023/10/28 10:28:05;;;;;;;21.30;3.28;;;;;;;;;;5024492;28;20467;-63
2023/10/28 10:30:34;;;;;;;16.70;3.30;;;;;;;;;;5019096;28;20038;-63
2023/10/28 10:33:03;;;;;;;25.55;3.35;;;;;;;;;;5026171;28;20474;-63
2023/10/28 10:35:31;;;;;;;21.48;3.50;;;;;;;;;;5022023;28;20484;-64
2023/10/28 10:38:02;;;;;;;60.17;5.50;;;;;;;;;;5021472;28;20095;-64
2023/10/28 10:40:33;;;;;;;23.35;3.75;;;;;;;;;;5018180;28;20479;-65
2023/10/28 10:43:04;;;;;;;30.60;3.45;;;;;;;;;;5021238;28;20451;-63
2023/10/28 10:45:32;;;;;;;19.42;3.25;;;;;;;;;;5020624;28;20479;-63
2023/10/28 10:47:59;;;;;;;26.02;3.53;;;;;;;;;;5023717;28;20076;-63
2023/10/28 10:50:25;;;;;;;25.90;3.60;;;;;;;;;;5023391;28;20470;-63
2023/10/28 10:52:52;;;;;;;48.22;5.53;;;;;;;;;;5029030;28;20052;-65
2023/10/28 10:55:23;;;;;;;30.95;3.83;;;;;;;;;;5023783;28;20096;-63
2023/10/28 10:57:51;;;;;;;20.15;3.03;;;;;;;;;;5019736;28;20045;-63
2023/10/28 11:00:18;;;;;;;29.58;3.70;;;;;;;;;;5018626;28;20088;-62
2023/10/28 11:02:45;;;;;;;16.80;3.05;;;;;;;;;;5019142;28;20517;-63
2023/10/28 11:05:13;;;;;;;29.67;4.20;;;;;;;;;;5021973;28;20055;-64
2023/10/28 11:07:41;;;;;;;28.90;3.65;;;;;;;;;;5021319;28;20074;-63
2023/10/28 11:10:08;;;;;;;22.33;3.28;;;;;;;;;;5020559;28;20111;-63
2023/10/28 11:12:36;;;;;;;26.20;3.90;;;;;;;;;;5025966;28;20045;-63
2023/10/28 11:15:10;;;;;;;20.15;2.92;;;;;;;;;;5021196;28;20042;-65
2023/10/28 11:17:38;;;;;;;28.60;3.92;;;;;;;;;;5022375;28;20061;-63
2023/10/28 11:20:06;;;;;;;60.10;5.43;;;;;;;;;;5021005;28;20053;-63
2023/10/28 11:22:34;;;;;;;28.17;3.17;;;;;;;;;;5020848;28;20037;-63
2023/10/28 11:25:03;;;;;;;22.60;3.67;;;;;;;;;;5023214;28;20506;-63
2023/10/28 11:27:31;;;;;;;20.23;2.95;;;;;;;;;;5020493;28;20042;-63
2023/10/28 11:30:00;;;;;;;29.15;3.95;;;;;;;;;;5023409;28;20049;-64
2023/10/28 11:32:36;;;;;;;39.35;4.97;;;;;;;;;;5025874;28;20033;-62
2023/10/28 11:35:03;;;;;;;61.42;5.75;;;;;;;;;;5025483;28;20049;-67
2023/10/28 11:37:29;;;;;;;18.27;3.45;;;;;;;;;;5025713;28;20069;-63
2023/10/28 11:39:56;;;;;;;21.42;3.90;;;;;;;;;;5024710;28;20041;-62
2023/10/28 11:42:23;;;;;;;22.38;3.60;;;;;;;;;;5029720;28;20124;-63
2023/10/28 11:44:50;;;;;;;17.45;3.25;;;;;;;;;;5024260;28;20493;-66
2023/10/28 11:47:19;;;;;;;26.48;3.95;;;;;;;;;;5022117;28;20148;-65
2023/10/28 11:49:46;;;;;;;27.42;5.60;;;;;;;;;;5028116;28;20073;-65
2023/10/28 11:52:13;;;;;;;26.50;3.67;;;;;;;;;;5025721;28;20547;-63
2023/10/28 11:54:40;;;;;;;21.23;3.70;;;;;;;;;;5026055;28;20038;-63
2023/10/28 11:57:07;;;;;;;39.72;4.47;;;;;;;;;;5025518;28;20050;-62
2023/10/28 11:59:34;;;;;;;33.97;4.80;;;;;;;;;;5025201;28;20057;-63
2023/10/28 12:02:01;;;;;;;69.70;6.53;;;;;;;;;;5024498;28;20042;-63
2023/10/28 12:04:27;;;;;;;26.92;4.68;;;;;;;;;;5025167;28;20064;-63
2023/10/28 12:06:54;;;;;;;19.95;3.97;;;;;;;;;;5024649;28;20061;-63
2023/10/28 12:09:23;;;;;;;18.15;3.75;;;;;;;;;;5024696;28;20092;-63
2023/10/28 12:11:51;;;;;;;33.92;4.78;;;;;;;;;;5021504;28;20103;-64
2023/10/28 12:14:17;;;;;;;36.25;5.50;;;;;;;;;;5028162;28;20033;-65
2023/10/28 12:16:44;;;;;;;29.88;5.30;;;;;;;;;;5028207;28;20046;-63
2023/10/28 12:19:11;;;;;;;18.75;4.43;;;;;;;;;;5023253;28;20120;-63
2023/10/28 12:21:37;;;;;;;23.25;3.92;;;;;;;;;;5025063;28;20045;-62
2023/10/28 12:24:05;;;;;;;32.22;4.40;;;;;;;;;;5025645;28;20042;-63
2023/10/28 12:26:31;;;;;;;33.47;4.63;;;;;;;;;;5024591;28;20037;-62
2023/10/28 12:28:58;;;;;;;73.38;6.75;;;;;;;;;;5023333;28;20045;-62
2023/10/28 12:31:26;;;;;;;27.83;4.05;;;;;;;;;;5027637;28;20041;-61
2023/10/28 12:33:52;;;;;;;29.88;3.95;;;;;;;;;;5024312;28;20044;-61
2023/10/28 12:36:20;;;;;;;25.85;4.30;;;;;;;;;;5025902;28;20045;-62
2023/10/28 12:38:47;;;;;;;23.40;4.40;;;;;;;;;;5023531;28;20076;-61
2023/10/28 12:41:13;;;;;;;23.65;3.97;;;;;;;;;;5024623;28;20045;-62
2023/10/28 12:43:40;;;;;;;25.75;4.45;;;;;;;;;;5023031;28;20060;-61
2023/10/28 12:46:07;;;;;;;18.75;3.92;;;;;;;;;;5022656;28;20091;-62
2023/10/28 12:48:34;;;;;;;19.92;4.15;;;;;;;;;;5030291;28;20075;-61
2023/10/28 12:51:00;;;;;;;27.33;3.80;;;;;;;;;;5026963;28;20041;-62
2023/10/28 12:53:27;;;;;;;37.55;6.10;;;;;;;;;;5023287;28;20037;-62
2023/10/28 12:55:54;;;;;;;52.47;6.95;;;;;;;;;;5023013;28;20052;-63
2023/10/28 12:58:21;;;;;;;32.22;4.88;;;;;;;;;;5024845;28;20069;-61
2023/10/28 13:00:49;;;;;;;23.83;3.78;;;;;;;;;;5027584;28;20097;-61
2023/10/28 13:03:16;;;;;;;14.77;3.17;;;;;;;;;;5022123;28;20050;-61
2023/10/28 13:05:42;;;;;;;23.52;3.88;;;;;;;;;;5026515;28;20092;-62
2023/10/28 13:08:09;;;;;;;32.85;4.25;;;;;;;;;;5028113;28;20061;-62
2023/10/28 13:10:36;;;;;;;25.27;3.95;;;;;;;;;;5022549;28;20053;-61
2023/10/28 13:13:03;;;;;;;22.02;3.92;;;;;;;;;;5025533;28;20117;-61
2023/10/28 13:15:30;;;;;;;30.75;4.18;;;;;;;;;;5019396;28;20505;-62
2023/10/28 13:17:56;;;;;;;27.90;4.25;;;;;;;;;;5024182;28;20041;-60
2023/10/28 13:20:24;;;;;;;24.88;3.83;;;;;;;;;;5029883;28;20108;-62
2023/10/28 13:22:50;;;;;;;36.17;4.32;;;;;;;;;;5021906;28;20053;-63
2023/10/28 13:25:19;;;;;;;20.88;4.22;;;;;;;;;;5021320;28;20450;-62
2023/10/28 13:27:45;;;;;;;18.98;3.53;;;;;;;;;;5023448;28;20398;-62
2023/10/28 13:30:13;;;;;;;24.17;4.07;;;;;;;;;;5026064;28;20099;-63
2023/10/28 13:32:41;;;;;;;29.65;4.43;;;;;;;;;;5022276;28;20041;-61
2023/10/28 13:35:21;;;;;;;33.17;4.93;;;;;;;;;;5030132;28;20042;-63
2023/10/28 13:37:49;;;;;;;23.98;4.05;;;;;;;;;;5028187;28;20033;-65
2023/10/28 13:40:20;;;;;;;14.40;3.38;;;;;;;;;;5031961;28;20123;-62
2023/10/28 13:42:49;;;;;;;31.30;4.30;;;;;;;;;;5012690;28;20091;-62
2023/10/28 13:45:16;;;;;;;15.10;3.83;;;;;;;;;;5027572;28;20041;-61
2023/10/28 13:47:42;;;;;;;33.88;4.45;;;;;;;;;;5029316;28;20037;-64
2023/10/28 13:50:11;;;;;;;43.38;5.22;;;;;;;;;;5029992;28;20042;-63
2023/10/28 13:52:39;;;;;;;19.88;3.65;;;;;;;;;;5029802;28;20052;-62
2023/10/28 13:55:07;;;;;;;33.35;4.72;;;;;;;;;;5029659;28;20046;-62
2023/10/28 13:57:38;;;;;;;29.63;4.20;;;;;;;;;;5029098;28;20046;-62
2023/10/28 14:00:10;;;;;;;38.40;6.00;;;;;;;;;;5030658;28;20052;-62
2023/10/28 14:02:38;;;;;;;28.55;5.35;;;;;;;;;;5026462;28;20133;-62
2023/10/28 14:05:07;;;;;;;87.53;8.82;;;;;;;;;;5028499;28;20049;-62
2023/10/28 14:07:34;;;;;;;29.20;6.82;;;;;;;;;;5025358;28;20107;-62
2023/10/28 14:10:01;;;;;;;19.42;4.43;;;;;;;;;;5026067;28;20056;-62
2023/10/28 14:12:28;;;;;;;26.92;4.50;;;;;;;;;;5020127;28;20048;-61
2023/10/28 14:14:56;;;;;;;25.27;5.07;;;;;;;;;;5023193;28;20041;-63
2023/10/28 14:17:23;;;;;;;33.40;8.25;;;;;;;;;;5023764;28;20441;-62
2023/10/28 14:19:49;;;;;;;27.85;7.60;;;;;;;;;;5023051;28;20067;-64
2023/10/28 14:22:20;;;;;;;31.23;9.07;;;;;;;;;;5024227;28;20041;-62
2023/10/28 14:24:48;;;;;;;30.90;9.40;;;;;;;;;;5022528;28;20048;-62
2023/10/28 14:27:15;;;;;;;33.08;10.07;;;;;;;;;;5026327;28;20376;-62
2023/10/28 14:29:42;;;;;;;33.13;8.32;;;;;;;;;;5021218;28;20128;-62